Time;durP1;ratioP1;P1;durP2;ratioP2;P2;SDS_P1;SDS_P2;PMS_P1;PMS_P2;Temp;Humidity;BMP_temperature;BMP_pressure;BME280_temperature;BME280_humidity;BME280_pressure;Samples;Min_cycle;Max_cycle;Signal;HPM_P1;HPM_P2
2021/12/24 00:01:22;;;;;;;28.97;12.93;;;1.70;99.90;;;;;;4997919;28;20234;-59
2021/12/24 00:03:48;;;;;;;27.47;13.70;;;1.70;99.90;;;;;;4994257;28;20461;-60
2021/12/24 00:06:14;;;;;;;25.17;13.23;;;1.70;99.90;;;;;;4996357;28;20426;-57
2021/12/24 00:08:40;;;;;;;24.60;12.70;;;1.70;99.90;;;;;;4995427;28;21093;-58
2021/12/24 00:11:07;;;;;;;32.90;13.50;;;1.70;99.90;;;;;;4997449;28;20176;-56
2021/12/24 00:13:37;;;;;;;25.87;13.07;;;1.60;99.90;;;;;;4996187;28;20467;-59
2021/12/24 00:18:57;;;;;;;31.17;14.50;;;1.50;99.90;;;;;;4997109;28;20448;-59
2021/12/24 00:37:24;;;;;;;23.47;11.90;;;1.20;99.90;;;;;;5010257;28;20467;-58
2021/12/24 00:42:28;;;;;;;26.37;13.23;;;1.30;99.90;;;;;;4996410;28;20448;-58
2021/12/24 00:44:54;;;;;;;21.50;11.67;;;1.30;99.90;;;;;;4995250;28;20440;-59
2021/12/24 00:47:19;;;;;;;22.83;12.73;;;1.30;99.90;;;;;;4995650;28;20671;-58
2021/12/24 00:49:45;;;;;;;24.30;11.63;;;1.30;99.90;;;;;;4991253;28;20331;-57
2021/12/24 00:55:09;;;;;;;22.60;11.40;;;1.20;99.90;;;;;;4997016;28;20928;-59
2021/12/24 00:57:37;;;;;;;28.03;11.67;;;1.10;99.90;;;;;;4993922;28;20444;-59
2021/12/24 01:00:20;;;;;;;24.97;12.77;;;1.10;99.90;;;;;;5001116;28;20523;-60
2021/12/24 01:02:48;;;;;;;27.67;12.27;;;1.00;99.90;;;;;;4996151;28;20438;-62
2021/12/24 01:05:16;;;;;;;25.40;11.73;;;1.00;99.90;;;;;;5003311;28;20532;-58
2021/12/24 01:07:44;;;;;;;25.20;13.00;;;1.00;99.90;;;;;;5001348;28;20443;-58
2021/12/24 01:10:11;;;;;;;21.27;12.70;;;1.00;99.90;;;;;;5012818;28;20464;-58
2021/12/24 01:12:37;;;;;;;24.43;11.17;;;1.00;99.90;;;;;;5017247;28;20566;-58
2021/12/24 01:15:06;;;;;;;25.90;12.73;;;1.00;99.90;;;;;;5011549;28;20670;-58
2021/12/24 01:20:05;;;;;;;23.17;11.97;;;1.10;99.90;;;;;;5012835;28;20450;-59
2021/12/24 01:25:30;;;;;;;24.17;11.50;;;1.20;99.90;;;;;;5014746;28;20460;-59
2021/12/24 01:38:32;;;;;;;30.27;12.87;;;1.20;99.90;;;;;;5015400;28;20422;-59
2021/12/24 01:43:28;;;;;;;27.37;12.80;;;1.30;99.90;;;;;;5015088;28;20425;-58
2021/12/24 01:45:57;;;;;;;25.23;12.83;;;1.30;99.90;;;;;;5016887;28;20509;-58
2021/12/24 01:48:23;;;;;;;24.60;11.43;;;1.40;99.90;;;;;;5018929;28;20537;-57
2021/12/24 01:50:51;;;;;;;23.10;11.33;;;1.40;99.90;;;;;;5011987;28;20468;-59
2021/12/24 01:53:20;;;;;;;26.50;11.63;;;1.60;99.90;;;;;;5016019;28;20233;-59
2021/12/24 01:55:48;;;;;;;26.50;13.50;;;1.70;99.90;;;;;;5015279;28;20518;-60
2021/12/24 01:58:17;;;;;;;24.10;12.40;;;1.80;99.90;;;;;;5017938;28;20434;-59
2021/12/24 02:00:45;;;;;;;26.33;11.93;;;1.90;99.90;;;;;;5017447;28;20453;-58
2021/12/24 02:03:12;;;;;;;20.93;11.43;;;2.00;99.90;;;;;;5018335;28;21039;-58
2021/12/24 02:05:39;;;;;;;23.17;11.80;;;2.10;99.90;;;;;;5021350;28;20424;-58
2021/12/24 02:08:06;;;;;;;21.90;11.13;;;2.20;99.90;;;;;;5022399;28;20499;-62
2021/12/24 02:10:32;;;;;;;24.10;11.77;;;2.20;99.90;;;;;;5024995;28;20443;-59
2021/12/24 02:12:58;;;;;;;26.07;13.67;;;2.20;99.90;;;;;;5026801;28;20493;-65
2021/12/24 02:29:05;;;;;;;21.50;12.50;;;2.30;99.90;;;;;;5020317;28;20457;-60
2021/12/24 02:31:30;;;;;;;34.33;12.73;;;2.40;99.90;;;;;;5026990;28;20458;-60
2021/12/24 02:33:56;;;;;;;29.57;12.97;;;2.40;99.90;;;;;;5035576;28;20179;-61
2021/12/24 02:36:22;;;;;;;22.77;12.10;;;2.30;99.90;;;;;;5029976;28;20176;-59
2021/12/24 02:38:49;;;;;;;26.80;11.87;;;2.30;99.90;;;;;;5029909;28;20171;-62
2021/12/24 02:41:16;;;;;;;22.93;11.33;;;2.30;99.90;;;;;;5021485;28;20501;-58
2021/12/24 02:43:42;;;;;;;39.10;13.20;;;2.30;99.90;;;;;;5018672;28;20434;-59
2021/12/24 02:46:26;;;;;;;24.17;11.60;;;2.30;99.90;;;;;;5018922;28;20496;-58
2021/12/24 02:54:10;;;;;;;18.53;10.60;;;2.30;99.90;;;;;;5017155;28;20485;-57
2021/12/24 02:56:38;;;;;;;29.53;12.27;;;2.20;99.90;;;;;;5017649;28;20856;-56
2021/12/24 02:59:12;;;;;;;25.90;12.60;;;2.20;99.90;;;;;;5007200;28;20484;-58
2021/12/24 03:01:41;;;;;;;25.40;12.60;;;2.10;99.90;;;;;;5004525;28;20433;-57
2021/12/24 03:04:09;;;;;;;25.00;11.93;;;2.10;99.90;;;;;;5004638;28;20932;-57
2021/12/24 03:06:38;;;;;;;25.10;12.80;;;2.10;99.90;;;;;;5004413;28;20440;-55
2021/12/24 03:09:07;;;;;;;23.93;11.40;;;2.20;99.90;;;;;;5007500;28;20446;-58
2021/12/24 03:11:34;;;;;;;23.23;12.70;;;2.20;99.90;;;;;;5004351;28;20500;-59
2021/12/24 03:14:01;;;;;;;28.07;12.47;;;2.20;99.90;;;;;;5003811;28;20470;-59
2021/12/24 03:16:27;;;;;;;27.57;11.83;;;2.20;99.90;;;;;;5005130;28;20434;-57
2021/12/24 03:18:53;;;;;;;18.63;11.83;;;2.20;99.90;;;;;;5001003;28;20435;-58
2021/12/24 03:21:24;;;;;;;25.10;12.47;;;2.20;99.90;;;;;;5002325;28;20561;-58
2021/12/24 03:26:29;;;;;;;23.27;11.67;;;2.20;99.90;;;;;;5003602;28;21036;-57
2021/12/24 03:28:55;;;;;;;24.33;12.07;;;2.20;99.90;;;;;;5002418;28;20447;-58
2021/12/24 03:31:21;;;;;;;22.03;12.60;;;2.20;99.90;;;;;;5005506;28;20461;-59
2021/12/24 03:33:48;;;;;;;21.13;12.03;;;2.20;99.90;;;;;;5003581;28;20427;-59
2021/12/24 03:36:15;;;;;;;23.40;11.70;;;2.20;99.90;;;;;;5000940;28;20436;-61
2021/12/24 03:38:41;;;;;;;22.47;12.13;;;2.20;99.90;;;;;;4999394;28;20521;-61
2021/12/24 03:41:07;;;;;;;21.13;11.70;;;2.20;99.90;;;;;;5005236;28;20468;-59
2021/12/24 03:43:33;;;;;;;24.70;12.20;;;2.30;99.90;;;;;;5005067;28;21270;-58
2021/12/24 03:46:04;;;;;;;25.23;10.80;;;2.30;99.90;;;;;;5003397;28;20414;-58
2021/12/24 03:48:49;;;;;;;23.17;11.93;;;2.30;99.90;;;;;;5007687;28;20481;-58
2021/12/24 03:56:35;;;;;;;19.50;10.70;;;2.20;99.90;;;;;;5002835;28;20536;-59
2021/12/24 03:59:00;;;;;;;20.63;10.83;;;2.20;99.90;;;;;;5000924;28;20817;-58
2021/12/24 04:01:26;;;;;;;29.53;11.07;;;2.30;99.90;;;;;;5023653;28;20443;-61
2021/12/24 04:03:52;;;;;;;21.20;11.60;;;2.30;99.90;;;;;;5024318;28;20215;-60
2021/12/24 04:06:18;;;;;;;22.70;10.80;;;2.30;99.90;;;;;;5003585;28;20502;-59
2021/12/24 04:08:44;;;;;;;21.47;10.43;;;2.40;99.90;;;;;;5000225;28;20446;-60
2021/12/24 04:11:10;;;;;;;23.97;11.40;;;2.40;99.90;;;;;;5004164;28;20438;-59
2021/12/24 04:13:36;;;;;;;18.93;9.80;;;2.40;99.90;;;;;;5004913;28;20324;-56
2021/12/24 04:16:02;;;;;;;28.77;11.43;;;2.50;99.90;;;;;;5002161;28;20183;-57
2021/12/24 04:26:28;;;;;;;22.20;11.90;;;2.50;99.90;;;;;;5002638;28;20437;-55
2021/12/24 04:28:54;;;;;;;21.53;10.80;;;2.50;99.90;;;;;;5000824;28;20840;-58
2021/12/24 04:31:25;;;;;;;22.40;12.30;;;2.50;99.90;;;;;;5000012;28;20446;-59
2021/12/24 04:33:51;;;;;;;23.60;11.57;;;2.50;99.90;;;;;;5001685;28;20817;-58
2021/12/24 04:52:54;;;;;;;25.17;11.53;;;2.50;99.90;;;;;;5003692;28;20597;-58
2021/12/24 05:03:35;;;;;;;18.73;10.40;;;2.50;99.90;;;;;;5006088;28;20528;-61
2021/12/24 05:06:17;;;;;;;20.20;10.83;;;2.50;99.90;;;;;;5004190;28;20457;-58
2021/12/24 05:08:52;;;;;;;17.83;11.50;;;2.60;99.90;;;;;;5001034;28;20440;-57
2021/12/24 05:11:19;;;;;;;24.27;12.17;;;2.70;99.90;;;;;;5006170;28;20427;-61
2021/12/24 05:13:46;;;;;;;20.67;10.70;;;2.70;99.90;;;;;;5009482;28;20417;-59
2021/12/24 05:21:33;;;;;;;22.03;10.30;;;2.70;99.90;;;;;;5008634;28;20969;-58
2021/12/24 05:24:03;;;;;;;21.97;11.33;;;2.60;99.90;;;;;;5009528;28;20416;-57
2021/12/24 05:26:30;;;;;;;20.60;10.50;;;2.50;99.90;;;;;;5005793;28;20509;-58
2021/12/24 05:28:57;;;;;;;26.77;12.10;;;2.50;99.90;;;;;;5004793;28;20439;-57
2021/12/24 05:31:24;;;;;;;21.73;11.27;;;2.40;99.90;;;;;;5006609;28;20528;-60
2021/12/24 05:33:49;;;;;;;23.40;11.87;;;2.40;99.90;;;;;;5006121;28;20803;-60
2021/12/24 05:36:15;;;;;;;20.33;11.47;;;2.30;99.90;;;;;;5005001;28;20776;-61
2021/12/24 05:38:41;;;;;;;30.93;13.40;;;2.30;99.90;;;;;;5008480;28;20188;-56
2021/12/24 05:41:06;;;;;;;19.30;11.50;;;2.30;99.90;;;;;;5008141;28;20216;-58
2021/12/24 05:43:32;;;;;;;24.20;12.90;;;2.30;99.90;;;;;;5004509;28;20172;-57
2021/12/24 05:45:58;;;;;;;22.80;12.57;;;2.30;99.90;;;;;;5010254;28;20181;-63
2021/12/24 05:48:23;;;;;;;26.40;13.63;;;2.30;99.90;;;;;;5028584;28;20434;-63
2021/12/24 05:50:49;;;;;;;24.27;12.13;;;2.30;99.90;;;;;;5023848;28;20792;-62
2021/12/24 05:53:15;;;;;;;23.47;12.93;;;2.30;99.90;;;;;;5016003;28;20707;-59
2021/12/24 05:55:41;;;;;;;19.00;10.60;;;2.30;99.90;;;;;;5005889;28;20185;-59
2021/12/24 05:58:08;;;;;;;22.83;12.53;;;2.30;99.90;;;;;;5006031;28;20171;-57
2021/12/24 06:00:39;;;;;;;23.93;12.23;;;2.40;99.90;;;;;;5006146;28;20593;-58
2021/12/24 06:03:06;;;;;;;21.60;12.30;;;2.30;99.90;;;;;;5005721;28;20443;-58
2021/12/24 06:05:36;;;;;;;25.83;11.50;;;2.30;99.90;;;;;;5012298;28;20431;-61
2021/12/24 06:08:03;;;;;;;24.63;12.83;;;2.40;99.90;;;;;;5027349;28;20463;-63
2021/12/24 06:10:28;;;;;;;28.07;13.43;;;2.40;99.90;;;;;;5024526;28;20476;-60
2021/12/24 06:12:54;;;;;;;28.83;13.37;;;2.40;99.90;;;;;;5005656;28;20462;-59
2021/12/24 06:15:24;;;;;;;22.40;13.30;;;2.40;99.90;;;;;;5004695;28;20210;-62
2021/12/24 06:17:53;;;;;;;19.63;11.10;;;2.40;99.90;;;;;;5006570;28;20424;-58
2021/12/24 06:20:19;;;;;;;24.07;11.93;;;2.40;99.90;;;;;;5006240;28;20451;-61
2021/12/24 06:22:44;;;;;;;21.50;11.60;;;2.40;99.90;;;;;;5030055;23;20434;-57
2021/12/24 06:25:10;;;;;;;21.70;11.90;;;2.40;99.90;;;;;;5026973;28;20317;-59
2021/12/24 06:27:37;;;;;;;19.80;10.83;;;2.40;99.90;;;;;;5028324;28;20179;-60
2021/12/24 06:30:06;;;;;;;24.77;11.77;;;2.40;99.90;;;;;;5028202;28;20168;-59
2021/12/24 06:32:31;;;;;;;17.83;9.90;;;2.50;99.90;;;;;;5025774;28;20488;-60
2021/12/24 06:34:57;;;;;;;17.37;10.77;;;2.50;99.90;;;;;;5008054;28;20780;-59
2021/12/24 06:37:23;;;;;;;17.20;9.20;;;2.50;99.90;;;;;;5008022;28;20842;-59
2021/12/24 06:39:49;;;;;;;24.30;13.13;;;2.50;99.90;;;;;;5008072;28;20169;-59
2021/12/24 06:42:15;;;;;;;17.47;10.33;;;2.50;99.90;;;;;;5020759;28;20534;-59
2021/12/24 06:44:41;;;;;;;17.73;10.63;;;2.50;99.90;;;;;;5007811;28;20241;-60
2021/12/24 06:47:07;;;;;;;20.90;11.80;;;2.50;99.90;;;;;;5009210;28;20220;-59
2021/12/24 06:49:33;;;;;;;21.97;11.10;;;2.50;99.90;;;;;;5007002;28;20687;-59
2021/12/24 06:51:59;;;;;;;19.47;9.87;;;2.50;99.90;;;;;;5006633;28;20218;-59
2021/12/24 06:54:24;;;;;;;20.83;10.30;;;2.50;99.90;;;;;;5004251;28;20444;-59
2021/12/24 06:56:50;;;;;;;21.60;10.43;;;2.50;99.90;;;;;;5005493;28;20204;-59
2021/12/24 06:59:16;;;;;;;21.77;10.50;;;2.40;99.90;;;;;;5008927;28;20200;-58
2021/12/24 07:01:43;;;;;;;21.57;10.83;;;2.40;99.90;;;;;;5005772;28;20176;-59
2021/12/24 07:04:08;;;;;;;20.60;11.37;;;2.40;99.90;;;;;;5002995;28;20515;-58
2021/12/24 07:06:34;;;;;;;21.50;11.30;;;2.40;99.90;;;;;;5018455;28;20438;-60
2021/12/24 07:09:00;;;;;;;22.50;10.90;;;2.40;99.90;;;;;;5005876;28;20177;-58
2021/12/24 07:11:25;;;;;;;18.33;10.50;;;2.40;99.90;;;;;;5006259;28;20192;-60
2021/12/24 07:13:52;;;;;;;19.90;11.03;;;2.50;99.90;;;;;;5006431;28;20198;-57
2021/12/24 07:16:18;;;;;;;19.67;10.30;;;2.50;99.90;;;;;;5022150;28;20176;-59
2021/12/24 07:18:44;;;;;;;20.13;9.23;;;2.50;99.90;;;;;;5006456;28;20442;-58
2021/12/24 07:21:10;;;;;;;19.63;10.20;;;2.60;99.90;;;;;;5005953;28;20462;-58
2021/12/24 07:23:35;;;;;;;16.50;9.83;;;2.60;99.90;;;;;;5005988;28;20273;-59
2021/12/24 07:26:02;;;;;;;19.37;10.10;;;2.60;99.90;;;;;;5024732;28;20660;-59
2021/12/24 07:28:27;;;;;;;21.73;11.20;;;2.60;99.90;;;;;;5005930;28;20168;-59
2021/12/24 07:30:53;;;;;;;18.07;10.40;;;2.50;99.90;;;;;;5006561;28;20439;-59
2021/12/24 07:33:19;;;;;;;22.10;10.70;;;2.50;99.90;;;;;;5004867;28;20227;-60
2021/12/24 07:35:46;;;;;;;20.43;10.70;;;2.50;99.90;;;;;;5008644;28;20423;-59
2021/12/24 07:38:15;;;;;;;24.13;12.40;;;2.40;99.90;;;;;;5004777;28;20543;-59
2021/12/24 07:40:45;;;;;;;20.63;11.40;;;2.40;99.90;;;;;;5006619;28;20437;-59
2021/12/24 07:43:11;;;;;;;22.10;12.50;;;2.40;99.90;;;;;;5005486;28;20451;-59
2021/12/24 07:45:39;;;;;;;25.73;12.90;;;2.40;99.90;;;;;;5006230;28;20427;-59
2021/12/24 07:48:28;;;;;;;21.37;11.73;;;2.40;99.90;;;;;;5006422;28;20447;-59
2021/12/24 07:53:20;;;;;;;23.17;11.57;;;2.40;99.90;;;;;;5002884;28;20528;-59
2021/12/24 07:55:46;;;;;;;22.50;11.90;;;2.40;99.90;;;;;;5007612;28;20412;-59
2021/12/24 07:58:17;;;;;;;18.50;11.03;;;2.40;99.90;;;;;;5007777;28;20180;-59
2021/12/24 08:00:44;;;;;;;20.90;12.37;;;2.40;99.90;;;;;;5006842;28;20196;-59
2021/12/24 08:03:10;;;;;;;19.73;12.33;;;2.40;99.90;;;;;;5004907;28;20549;-59
2021/12/24 08:05:39;;;;;;;25.37;12.47;;;2.40;99.90;;;;;;5005808;28;20440;-60
2021/12/24 08:08:10;;;;;;;23.87;12.90;;;2.40;99.90;;;;;;5004496;28;20444;-59
2021/12/24 08:10:37;;;;;;;23.83;14.13;;;2.40;99.90;;;;;;5004441;28;20481;-59
2021/12/24 08:13:04;;;;;;;37.47;22.90;;;2.50;99.90;;;;;;5003976;28;20488;-58
2021/12/24 08:15:30;;;;;;;36.83;19.87;;;2.50;99.90;;;;;;4998845;28;20826;-59
2021/12/24 08:17:55;;;;;;;38.57;19.10;;;2.50;99.90;;;;;;5008043;28;20419;-59
2021/12/24 08:20:24;;;;;;;35.70;19.07;;;2.50;99.90;;;;;;5004010;28;20202;-59
2021/12/24 08:22:52;;;;;;;35.13;19.87;;;2.60;99.90;;;;;;5001161;28;20330;-60
2021/12/24 08:25:19;;;;;;;33.73;18.63;;;2.60;99.90;;;;;;5002364;28;20447;-60
2021/12/24 08:27:45;;;;;;;32.23;17.77;;;2.60;99.90;;;;;;5004634;28;20459;-60
2021/12/24 08:30:11;;;;;;;27.03;15.27;;;2.60;99.90;;;;;;5005255;28;20435;-59
2021/12/24 08:32:40;;;;;;;22.60;12.70;;;2.60;99.90;;;;;;5001220;28;20517;-59
2021/12/24 08:35:08;;;;;;;25.40;14.10;;;2.60;99.90;;;;;;5002819;28;20917;-59
2021/12/24 08:37:34;;;;;;;30.03;15.00;;;2.70;99.90;;;;;;5017497;28;20533;-59
2021/12/24 08:40:00;;;;;;;28.20;14.70;;;2.70;99.90;;;;;;5002906;28;20546;-59
2021/12/24 08:42:25;;;;;;;20.77;13.17;;;2.70;99.90;;;;;;5000349;28;20188;-58
2021/12/24 08:44:52;;;;;;;29.50;13.50;;;2.70;99.90;;;;;;4998334;28;20673;-59
2021/12/24 08:47:18;;;;;;;25.27;13.43;;;2.80;99.90;;;;;;5005674;28;20186;-59
2021/12/24 08:49:43;;;;;;;30.53;14.40;;;2.90;99.90;;;;;;5006095;28;20446;-59
2021/12/24 08:52:09;;;;;;;19.77;12.30;;;2.90;99.90;;;;;;5005864;28;20875;-59
2021/12/24 08:54:35;;;;;;;17.70;10.93;;;3.00;99.90;;;;;;5005502;28;20204;-58
2021/12/24 08:57:01;;;;;;;23.80;11.87;;;3.10;99.90;;;;;;5002832;28;20182;-59
2021/12/24 08:59:26;;;;;;;27.13;13.20;;;3.10;99.90;;;;;;5006288;28;20450;-57
2021/12/24 09:01:53;;;;;;;18.23;12.30;;;3.20;99.90;;;;;;5006074;28;20552;-58
2021/12/24 09:04:19;;;;;;;22.87;12.50;;;3.20;99.90;;;;;;5006013;28;20207;-59
2021/12/24 09:06:45;;;;;;;35.00;14.00;;;3.30;99.90;;;;;;5005211;28;20980;-61
2021/12/24 09:09:11;;;;;;;27.77;14.13;;;3.30;99.90;;;;;;5020454;28;20446;-61
2021/12/24 09:11:39;;;;;;;22.40;12.53;;;3.30;99.90;;;;;;5001582;28;20207;-60
2021/12/24 09:14:05;;;;;;;23.83;12.90;;;3.40;99.90;;;;;;5003209;28;20931;-59
2021/12/24 09:16:33;;;;;;;29.40;14.03;;;3.30;99.90;;;;;;5005041;28;20446;-58
2021/12/24 09:19:03;;;;;;;23.47;13.40;;;3.20;99.90;;;;;;5008232;28;20469;-59
2021/12/24 09:21:29;;;;;;;26.13;12.80;;;3.10;99.90;;;;;;5004819;28;20443;-58
2021/12/24 09:23:57;;;;;;;26.37;14.57;;;3.10;99.90;;;;;;5006584;28;20458;-59
2021/12/24 09:26:28;;;;;;;29.40;14.97;;;3.00;99.90;;;;;;5003926;28;20545;-58
2021/12/24 09:28:58;;;;;;;26.07;15.03;;;3.00;99.90;;;;;;5010845;28;20764;-58
2021/12/24 09:31:24;;;;;;;33.93;15.00;;;3.00;99.90;;;;;;5007613;28;20931;-59
2021/12/24 09:33:50;;;;;;;26.43;15.17;;;3.00;99.90;;;;;;5008249;28;20458;-59
2021/12/24 09:36:23;;;;;;;34.17;16.03;;;3.10;99.90;;;;;;5006788;28;20458;-58
2021/12/24 09:38:49;;;;;;;22.80;12.40;;;3.10;99.90;;;;;;5008046;28;20445;-59
2021/12/24 09:41:15;;;;;;;23.53;12.13;;;3.20;99.90;;;;;;5006420;28;20423;-59
2021/12/24 09:43:41;;;;;;;21.17;12.60;;;3.30;99.90;;;;;;5019877;28;21174;-59
2021/12/24 09:46:06;;;;;;;20.73;12.63;;;3.40;99.90;;;;;;5005706;28;20439;-59
2021/12/24 09:48:32;;;;;;;26.20;12.80;;;3.40;99.90;;;;;;5008853;28;20180;-59
2021/12/24 09:50:58;;;;;;;26.90;13.23;;;3.50;99.90;;;;;;5006845;28;20667;-59
2021/12/24 09:53:23;;;;;;;28.13;13.53;;;3.60;99.90;;;;;;5007132;28;20222;-58
2021/12/24 09:55:49;;;;;;;25.17;14.07;;;3.60;99.90;;;;;;5006664;28;20191;-59
2021/12/24 09:58:15;;;;;;;27.63;13.30;;;3.60;99.90;;;;;;5007625;28;20215;-59
2021/12/24 10:00:41;;;;;;;21.27;12.77;;;3.70;99.90;;;;;;5008042;28;20208;-59
2021/12/24 10:03:07;;;;;;;27.63;14.43;;;3.70;99.90;;;;;;5007403;28;20196;-60
2021/12/24 10:05:39;;;;;;;24.90;14.37;;;3.70;99.90;;;;;;5004673;28;20234;-57
2021/12/24 10:08:23;;;;;;;25.77;13.87;;;3.70;99.90;;;;;;5007983;28;20212;-59
2021/12/24 10:10:52;;;;;;;30.50;14.70;;;3.70;99.90;;;;;;5007262;28;20455;-59
2021/12/24 10:13:28;;;;;;;29.07;14.93;;;3.70;99.90;;;;;;5006140;28;20820;-57
2021/12/24 10:16:00;;;;;;;22.80;14.00;;;3.80;99.90;;;;;;5005630;28;20442;-60
2021/12/24 10:18:37;;;;;;;18.43;11.43;;;3.80;99.90;;;;;;5008452;28;20430;-58
2021/12/24 10:21:10;;;;;;;24.07;12.53;;;3.80;99.90;;;;;;5003772;28;20437;-59
2021/12/24 10:23:54;;;;;;;21.83;11.90;;;3.80;99.90;;;;;;5008589;28;20467;-59
2021/12/24 10:26:44;;;;;;;20.43;12.10;;;3.90;99.90;;;;;;5019343;28;20946;-60
2021/12/24 10:29:15;;;;;;;21.83;11.93;;;3.90;99.90;;;;;;5007934;28;20446;-59
2021/12/24 10:31:49;;;;;;;22.40;12.67;;;3.90;99.90;;;;;;5007628;28;20521;-59
2021/12/24 10:34:23;;;;;;;23.47;12.90;;;3.90;99.90;;;;;;5004177;28;20463;-59
2021/12/24 10:37:01;;;;;;;23.27;11.50;;;4.00;99.90;;;;;;5005476;28;20523;-60
2021/12/24 10:39:39;;;;;;;23.30;11.87;;;4.00;99.90;;;;;;5019129;28;20513;-58
2021/12/24 10:42:12;;;;;;;20.90;11.77;;;4.00;99.90;;;;;;5007827;28;20453;-59
2021/12/24 10:44:40;;;;;;;18.70;10.70;;;4.10;99.90;;;;;;5006085;28;20458;-59
2021/12/24 10:47:09;;;;;;;21.27;11.20;;;4.10;99.90;;;;;;5006841;28;21704;-59
2021/12/24 10:55:03;;;;;;;17.87;10.13;;;4.10;99.90;;;;;;5004348;28;20549;-59
2021/12/24 10:57:34;;;;;;;20.60;10.80;;;4.10;99.90;;;;;;5002840;28;20454;-58
2021/12/24 11:00:15;;;;;;;20.10;10.77;;;4.10;99.90;;;;;;5004013;28;20563;-58
2021/12/24 11:02:42;;;;;;;21.97;11.00;;;4.10;99.90;;;;;;5000552;28;20427;-58
2021/12/24 11:05:26;;;;;;;16.83;9.80;;;4.20;99.90;;;;;;5001847;28;20968;-58
2021/12/24 11:07:53;;;;;;;16.73;9.50;;;4.20;99.90;;;;;;5004936;28;20435;-58
2021/12/24 11:10:22;;;;;;;18.50;10.33;;;4.20;99.90;;;;;;5002481;28;20470;-57
2021/12/24 11:13:09;;;;;;;19.97;11.40;;;4.30;99.90;;;;;;5018818;28;20474;-58
2021/12/24 11:15:38;;;;;;;16.77;10.10;;;4.30;99.90;;;;;;5002665;28;20475;-58
2021/12/24 11:18:19;;;;;;;20.07;10.00;;;4.40;99.90;;;;;;5003758;28;20447;-59
2021/12/24 11:20:49;;;;;;;20.87;11.03;;;4.40;99.90;;;;;;5003392;28;20435;-59
2021/12/24 11:23:17;;;;;;;20.43;10.50;;;4.40;99.90;;;;;;5004575;28;20478;-60
2021/12/24 11:25:46;;;;;;;19.43;10.30;;;4.40;99.90;;;;;;5004708;28;20824;-59
2021/12/24 11:28:13;;;;;;;16.60;9.63;;;4.40;99.90;;;;;;4999604;28;20454;-59
2021/12/24 11:30:45;;;;;;;17.87;10.53;;;4.40;99.90;;;;;;5001127;28;20427;-58
2021/12/24 11:33:21;;;;;;;22.13;10.87;;;4.40;99.90;;;;;;5003680;28;20603;-55
2021/12/24 11:35:48;;;;;;;17.63;9.63;;;4.50;99.90;;;;;;5005309;28;20929;-57
2021/12/24 11:38:19;;;;;;;19.60;11.63;;;4.50;99.90;;;;;;5003744;28;20928;-59
2021/12/24 11:40:47;;;;;;;18.93;10.83;;;4.50;99.90;;;;;;5004143;28;20472;-59
2021/12/24 11:43:14;;;;;;;43.97;23.27;;;4.50;99.90;;;;;;5002668;28;20541;-58
2021/12/24 11:45:41;;;;;;;23.73;13.77;;;4.50;99.90;;;;;;5003155;28;20447;-59
2021/12/24 11:48:07;;;;;;;27.40;12.77;;;4.50;99.90;;;;;;5003240;28;20438;-58
2021/12/24 11:50:34;;;;;;;22.60;13.13;;;4.50;99.90;;;;;;5001204;28;20639;-58
2021/12/24 11:53:03;;;;;;;30.57;14.20;;;4.50;99.90;;;;;;5001421;28;20475;-59
2021/12/24 11:55:36;;;;;;;19.90;12.10;;;4.50;99.90;;;;;;4999151;28;20442;-59
2021/12/24 11:58:06;;;;;;;22.70;12.53;;;4.50;99.90;;;;;;4999604;28;20462;-60
2021/12/24 12:00:41;;;;;;;20.60;12.77;;;4.50;99.90;;;;;;4996234;28;20446;-59
2021/12/24 12:03:28;;;;;;;17.23;10.37;;;4.50;99.90;;;;;;4999128;28;20465;-58
2021/12/24 12:05:54;;;;;;;16.20;9.90;;;4.50;99.90;;;;;;4996958;28;20431;-60
2021/12/24 12:08:26;;;;;;;15.40;10.03;;;4.50;99.90;;;;;;4997643;28;20431;-59
2021/12/24 12:11:14;;;;;;;18.13;9.40;;;4.50;99.90;;;;;;5000058;28;22104;-59
2021/12/24 12:14:05;;;;;;;17.30;10.50;;;4.60;99.90;;;;;;4997011;28;20475;-59
2021/12/24 12:16:39;;;;;;;19.37;10.23;;;4.60;99.90;;;;;;5000350;28;20934;-58
2021/12/24 12:19:22;;;;;;;19.87;10.50;;;4.60;99.90;;;;;;4997534;28;20443;-59
2021/12/24 12:25:03;;;;;;;21.63;12.20;;;4.70;99.90;;;;;;5035917;22;20739;-56
2021/12/24 12:27:54;;;;;;;19.07;12.87;;;4.70;99.90;;;;;;5017695;28;20425;-54
2021/12/24 12:30:28;;;;;;;21.30;11.40;;;4.70;99.90;;;;;;5024489;28;20438;-63
2021/12/24 12:33:12;;;;;;;20.87;11.60;;;4.70;99.90;;;;;;5026251;28;20986;-57
2021/12/24 12:35:42;;;;;;;19.57;11.77;;;4.70;99.90;;;;;;5022521;28;20453;-58
2021/12/24 12:38:30;;;;;;;24.87;11.03;;;4.70;99.90;;;;;;5017550;28;20439;-56
2021/12/24 12:41:21;;;;;;;19.03;11.33;;;4.70;99.90;;;;;;5017669;28;20914;-56
2021/12/24 12:43:49;;;;;;;14.73;8.90;;;4.70;99.90;;;;;;5013101;28;20462;-60
2021/12/24 12:46:25;;;;;;;16.13;8.97;;;4.70;99.90;;;;;;5016171;28;20621;-56
2021/12/24 12:48:53;;;;;;;17.13;9.63;;;4.70;99.90;;;;;;5014500;28;20973;-56
2021/12/24 12:51:21;;;;;;;17.90;9.40;;;4.70;99.90;;;;;;5009780;28;20436;-54
2021/12/24 12:53:48;;;;;;;16.60;9.70;;;4.70;99.90;;;;;;5020736;28;20473;-57
2021/12/24 12:56:20;;;;;;;19.33;9.60;;;4.70;99.90;;;;;;5024229;28;20527;-56
2021/12/24 12:59:04;;;;;;;15.63;9.50;;;4.70;99.90;;;;;;5030028;28;20419;-59
2021/12/24 13:01:30;;;;;;;18.93;9.90;;;4.70;99.90;;;;;;5036113;28;20435;-56
2021/12/24 13:03:55;;;;;;;16.20;10.07;;;4.70;99.90;;;;;;5019943;28;20438;-55
2021/12/24 13:06:22;;;;;;;18.27;10.80;;;4.70;99.90;;;;;;5019422;28;20443;-55
2021/12/24 13:08:47;;;;;;;17.17;10.50;;;4.80;99.90;;;;;;5018724;28;20168;-56
2021/12/24 13:11:16;;;;;;;17.90;10.70;;;4.80;99.90;;;;;;5010764;28;21371;-54
2021/12/24 13:13:50;;;;;;;15.37;9.20;;;4.80;99.90;;;;;;5017226;28;20221;-56
2021/12/24 13:16:17;;;;;;;18.93;10.27;;;4.80;99.90;;;;;;5016005;28;20496;-58
2021/12/24 13:18:47;;;;;;;16.97;10.10;;;4.80;99.90;;;;;;5018717;28;20496;-56
2021/12/24 13:23:57;;;;;;;15.30;10.57;;;4.80;99.90;;;;;;5032046;28;20476;-57
2021/12/24 13:26:24;;;;;;;16.77;9.27;;;4.90;99.90;;;;;;5032396;28;20442;-56
2021/12/24 13:29:16;;;;;;;16.60;9.50;;;4.90;99.90;;;;;;5032471;28;20823;-57
2021/12/24 13:31:53;;;;;;;15.50;9.53;;;4.90;99.90;;;;;;5027888;28;20432;-52
2021/12/24 13:34:20;;;;;;;18.70;12.13;;;4.80;99.90;;;;;;5029555;28;21126;-57
2021/12/24 13:36:46;;;;;;;14.60;8.63;;;4.90;99.90;;;;;;5024655;28;20430;-58
2021/12/24 13:39:18;;;;;;;19.27;10.57;;;4.90;99.90;;;;;;5025838;28;20433;-55
2021/12/24 13:41:45;;;;;;;14.43;9.07;;;4.80;99.90;;;;;;5025514;28;20453;-54
2021/12/24 13:44:26;;;;;;;22.37;11.00;;;4.80;99.90;;;;;;5031689;28;20867;-56
2021/12/24 13:47:03;;;;;;;18.93;11.90;;;4.90;99.90;;;;;;5039271;28;20476;-58
2021/12/24 13:49:47;;;;;;;18.37;11.70;;;4.80;99.90;;;;;;5039020;28;20429;-56
2021/12/24 13:54:56;;;;;;;22.20;12.17;;;4.80;99.90;;;;;;5018017;28;22159;-55
2021/12/24 13:57:24;;;;;;;19.97;11.67;;;4.80;99.90;;;;;;5021002;28;20444;-56
2021/12/24 13:59:51;;;;;;;21.23;12.23;;;4.80;99.90;;;;;;5028499;28;20162;-59
2021/12/24 14:02:17;;;;;;;23.70;12.00;;;4.80;99.90;;;;;;5019265;28;20435;-57
2021/12/24 14:04:43;;;;;;;25.03;12.27;;;4.80;99.90;;;;;;5022056;28;20971;-56
2021/12/24 14:07:09;;;;;;;22.33;12.73;;;4.80;99.90;;;;;;5020482;28;20477;-58
2021/12/24 14:09:35;;;;;;;21.20;12.40;;;4.80;99.90;;;;;;5021291;28;20522;-56
2021/12/24 14:12:03;;;;;;;24.87;12.17;;;4.80;99.90;;;;;;5021790;28;21200;-56
2021/12/24 14:15:07;;;;;;;24.70;12.50;;;4.80;99.90;;;;;;5021032;28;20273;-56
2021/12/24 14:22:24;;;;;;;20.47;12.40;;;4.80;99.90;;;;;;5016450;28;20828;-56
2021/12/24 14:25:02;;;;;;;17.90;12.03;;;4.80;99.90;;;;;;5016948;28;20216;-58
2021/12/24 14:27:30;;;;;;;18.83;12.17;;;4.80;99.90;;;;;;5020363;28;20517;-59
2021/12/24 14:30:00;;;;;;;20.50;12.30;;;4.80;99.90;;;;;;5025161;28;20431;-55
2021/12/24 14:32:49;;;;;;;25.47;14.07;;;4.80;99.90;;;;;;5021014;28;20470;-57
2021/12/24 14:35:23;;;;;;;21.90;13.73;;;4.80;99.90;;;;;;5016674;28;20470;-56
2021/12/24 14:38:06;;;;;;;25.77;15.20;;;4.80;99.90;;;;;;5020340;28;20433;-57
2021/12/24 14:40:35;;;;;;;27.20;14.57;;;4.80;99.90;;;;;;5022913;28;20434;-57
2021/12/24 14:43:10;;;;;;;32.13;17.47;;;4.80;99.90;;;;;;5009162;28;20473;-56
2021/12/24 14:45:42;;;;;;;47.33;26.20;;;4.80;99.90;;;;;;5021302;28;20440;-58
2021/12/24 14:48:07;;;;;;;27.47;16.80;;;4.80;99.90;;;;;;5026605;28;20452;-56
2021/12/24 14:50:46;;;;;;;29.20;17.47;;;4.80;99.90;;;;;;5018599;28;20433;-59
2021/12/24 14:53:18;;;;;;;29.03;16.97;;;4.70;99.90;;;;;;5015374;28;20206;-56
2021/12/24 14:55:45;;;;;;;25.00;14.43;;;4.70;99.90;;;;;;5018933;28;20433;-55
2021/12/24 14:58:11;;;;;;;24.43;15.93;;;4.70;99.90;;;;;;5017538;28;20442;-60